Corinne, Utah
Current Conditions -  °F | °C
As of 1:15 AM on Thursday 27 Nov 2014 (Local Time) from KBMC Reporting Station
Clear Clear  
Wind Chill: 45°   Ceiling: Unl
Heat Index: 45°   Visibility: 10mi
Dew Point: 28°   Wind: 3mph
Humidity: 52%   Direction: 330°NNW
Pressure: 30.34"   Gusts: NA
Location:  41.55°N, 112.11°W
Report Text: KBMC 270815Z AUTO 33003KT 10SM CLR 07/M02 A3034 RMK AO1 T00711023
Loading
Personal Weather Stations






























Interactive Weather Map New forecast layout! Learn more

10-Day Weather Forecast

Advertisements
Track Severe Weather on mobile